createdAt,value
2023-07-15T00:00:02.914Z,24.4
2023-07-15T00:01:04.820Z,24.4
2023-07-15T00:02:06.949Z,24.4
2023-07-15T00:03:08.641Z,24.4
2023-07-15T00:04:10.479Z,24.4
2023-07-15T00:05:12.606Z,24.4
2023-07-15T00:06:14.482Z,24.4
2023-07-15T00:07:17.634Z,24.4
2023-07-15T00:08:19.395Z,24.4
2023-07-15T00:09:21.179Z,24.4
2023-07-15T00:10:22.951Z,24.4
2023-07-15T00:11:25.011Z,24.4
2023-07-15T00:12:26.914Z,24.4
2023-07-15T00:13:28.659Z,24.4
2023-07-15T00:14:30.378Z,24.4
2023-07-15T00:15:32.167Z,24.4
2023-07-15T00:16:33.946Z,24.4
2023-07-15T00:17:36.294Z,24.4
2023-07-15T00:18:38.796Z,24.4
2023-07-15T00:19:40.487Z,24.4
2023-07-15T00:20:42.218Z,24.3
2023-07-15T00:21:43.999Z,24.3
2023-07-15T00:22:45.801Z,24.3
2023-07-15T00:23:47.953Z,24.3
2023-07-15T00:24:49.644Z,24.3
2023-07-15T00:25:51.330Z,24.3
2023-07-15T00:26:53.348Z,24.3
2023-07-15T00:27:55.508Z,24.3
2023-07-15T00:28:57.264Z,24.3
2023-07-15T00:29:58.967Z,24.3
2023-07-15T00:31:00.647Z,24.2
2023-07-15T00:32:02.445Z,24.2
2023-07-15T00:33:04.460Z,24.2
2023-07-15T00:34:06.493Z,24.2
2023-07-15T00:35:08.332Z,24.2
2023-07-15T00:36:10.080Z,24.2
2023-07-15T00:37:12.123Z,24.2
2023-07-15T00:38:14.033Z,24.3
2023-07-15T00:39:15.712Z,24.3
2023-07-15T00:40:17.417Z,24.3
2023-07-15T00:41:19.140Z,24.3
2023-07-15T00:42:20.902Z,24.3
2023-07-15T00:43:22.784Z,24.2
2023-07-15T00:44:24.518Z,24.2
2023-07-15T00:45:26.289Z,24.2
2023-07-15T00:46:28.045Z,24.2
2023-07-15T00:47:30.166Z,24.3
2023-07-15T00:48:32.145Z,24.3
2023-07-15T00:49:33.974Z,24.2
2023-07-15T00:50:35.721Z,24.2
2023-07-15T00:51:37.547Z,24.2
2023-07-15T00:52:39.256Z,24.2
2023-07-15T00:53:40.975Z,24.3
2023-07-15T00:54:42.651Z,24.3
2023-07-15T00:55:44.814Z,24.3
2023-07-15T00:56:46.618Z,24.3
2023-07-15T00:57:48.406Z,24.3
2023-07-15T00:58:50.168Z,24.3
2023-07-15T00:59:51.944Z,24.3
2023-07-15T01:00:53.709Z,24.3
2023-07-15T01:01:55.893Z,24.3
2023-07-15T01:02:57.714Z,24.3
2023-07-15T01:04:00.681Z,24.3
2023-07-15T01:05:02.488Z,24.2
2023-07-15T01:06:04.275Z,24.2
2023-07-15T01:07:05.976Z,24.2
2023-07-15T01:08:07.936Z,24.2
2023-07-15T01:09:09.708Z,24.2
2023-07-15T01:10:11.388Z,24.2
2023-07-15T01:11:13.193Z,24.2
2023-07-15T01:12:14.907Z,24.3
2023-07-15T01:13:16.751Z,24.3
2023-07-15T01:14:18.629Z,24.3
2023-07-15T01:15:20.506Z,24.3
2023-07-15T01:16:22.226Z,24.3
2023-07-15T01:17:24.409Z,24.3
2023-07-15T01:18:26.325Z,24.2
2023-07-15T01:19:28.088Z,24.2
2023-07-15T01:20:30.308Z,24.1
2023-07-15T01:21:32.026Z,24.1
2023-07-15T01:22:33.860Z,24.1
2023-07-15T01:23:35.751Z,24.1
2023-07-15T01:24:37.688Z,24.1
2023-07-15T01:25:39.471Z,24.2
2023-07-15T01:26:41.504Z,24.2
2023-07-15T01:27:43.167Z,24.2
2023-07-15T01:28:44.880Z,24.1
2023-07-15T01:29:46.707Z,24.1
2023-07-15T01:30:48.507Z,24.1
2023-07-15T01:31:50.663Z,24.1
2023-07-15T01:32:52.477Z,24.1
2023-07-15T01:33:54.478Z,24.1
2023-07-15T01:34:56.257Z,24.1
2023-07-15T01:35:58.013Z,24.1
2023-07-15T01:36:59.777Z,24.1
2023-07-15T01:38:01.500Z,24.1
2023-07-15T01:39:03.344Z,24.1
2023-07-15T01:40:05.123Z,24.1
2023-07-15T01:41:06.874Z,24.1
2023-07-15T01:42:08.601Z,24.1
2023-07-15T01:43:10.305Z,24
2023-07-15T01:44:12.166Z,24
2023-07-15T01:45:13.989Z,24
2023-07-15T01:46:15.985Z,24
2023-07-15T01:47:21.862Z,24
2023-07-15T01:48:26.115Z,24
2023-07-15T01:49:30.868Z,24.1
2023-07-15T01:50:32.653Z,24.1
2023-07-15T01:51:34.377Z,24.1
2023-07-15T01:52:36.163Z,24
2023-07-15T01:53:37.922Z,24
2023-07-15T01:54:39.598Z,24
2023-07-15T01:55:41.284Z,24
2023-07-15T01:56:42.992Z,24
2023-07-15T01:57:44.687Z,24
2023-07-15T01:58:46.371Z,24
2023-07-15T01:59:48.067Z,24
2023-07-15T02:00:49.944Z,24
2023-07-15T02:01:51.947Z,24
2023-07-15T02:02:54.554Z,24
2023-07-15T02:03:57.427Z,24
2023-07-15T02:04:59.912Z,24
2023-07-15T02:06:01.680Z,24
2023-07-15T02:07:03.747Z,24
2023-07-15T02:08:05.458Z,23.9
2023-07-15T02:09:07.185Z,24
2023-07-15T02:10:09.117Z,23.9
2023-07-15T02:11:10.823Z,23.9
2023-07-15T02:12:12.529Z,23.9
2023-07-15T02:13:14.216Z,24
2023-07-15T02:14:15.989Z,24
2023-07-15T02:15:17.719Z,23.9
2023-07-15T02:16:19.505Z,23.9
2023-07-15T02:17:21.667Z,23.9
2023-07-15T02:18:23.730Z,23.9
2023-07-15T02:19:25.484Z,23.9
2023-07-15T02:20:27.299Z,24
2023-07-15T02:21:29.113Z,24
2023-07-15T02:22:30.907Z,23.9
2023-07-15T02:23:32.887Z,23.9
2023-07-15T02:24:34.577Z,23.9
2023-07-15T02:25:36.272Z,23.9
2023-07-15T02:26:38.014Z,23.9
2023-07-15T02:27:39.825Z,23.9
2023-07-15T02:28:41.537Z,23.9
2023-07-15T02:29:43.363Z,23.9
2023-07-15T02:30:45.165Z,23.9
2023-07-15T02:31:47.310Z,23.9
2023-07-15T02:32:49.236Z,23.9
2023-07-15T02:33:54.373Z,23.9
2023-07-15T02:34:56.072Z,23.9
2023-07-15T02:35:57.809Z,23.9
2023-07-15T02:36:59.465Z,23.9
2023-07-15T02:38:01.202Z,23.9
2023-07-15T02:39:02.949Z,23.9
2023-07-15T02:40:04.758Z,23.9
2023-07-15T02:41:06.539Z,23.8
2023-07-15T02:42:08.276Z,23.8
2023-07-15T02:43:10.114Z,23.8
2023-07-15T02:44:11.821Z,23.8
2023-07-15T02:45:13.596Z,23.8
2023-07-15T02:46:15.650Z,23.8
2023-07-15T02:47:18.849Z,23.9
2023-07-15T02:48:20.729Z,23.9
2023-07-15T02:49:22.686Z,23.9
2023-07-15T02:50:24.396Z,23.9
2023-07-15T02:51:26.108Z,23.9
2023-07-15T02:52:27.950Z,23.8
2023-07-15T02:53:29.817Z,23.9
2023-07-15T02:54:31.521Z,23.9
2023-07-15T02:55:33.302Z,23.9
2023-07-15T02:56:35.084Z,23.8
2023-07-15T02:57:36.907Z,23.8
2023-07-15T02:58:41.410Z,23.8
2023-07-15T02:59:43.238Z,23.8
2023-07-15T03:00:44.963Z,23.8
2023-07-15T03:01:49.499Z,23.8
2023-07-15T03:02:51.635Z,23.8
2023-07-15T03:03:53.659Z,23.8
2023-07-15T03:04:55.397Z,23.8
2023-07-15T03:05:57.382Z,23.8
2023-07-15T03:06:59.085Z,23.8
2023-07-15T03:08:00.853Z,23.8
2023-07-15T03:09:02.546Z,23.8
2023-07-15T03:10:04.281Z,23.8
2023-07-15T03:11:05.963Z,23.8
2023-07-15T03:12:07.660Z,23.8
2023-07-15T03:13:09.396Z,23.8
2023-07-15T03:14:11.104Z,23.8
2023-07-15T03:15:12.935Z,23.8
2023-07-15T03:16:15.100Z,23.8
2023-07-15T03:17:18.230Z,23.8
2023-07-15T03:18:19.977Z,23.8
2023-07-15T03:19:21.744Z,23.8
2023-07-15T03:20:23.542Z,23.8
2023-07-15T03:21:25.280Z,23.8
2023-07-15T03:22:26.976Z,23.8
2023-07-15T03:23:29.110Z,23.9
2023-07-15T03:24:30.823Z,23.9
2023-07-15T03:25:32.573Z,23.9
2023-07-15T03:26:34.319Z,23.9
2023-07-15T03:27:36.154Z,23.8
2023-07-15T03:28:37.853Z,23.8
2023-07-15T03:29:39.560Z,23.8
2023-07-15T03:30:41.258Z,23.8
2023-07-15T03:31:42.993Z,23.8
2023-07-15T03:32:45.055Z,23.8
2023-07-15T03:33:52.643Z,23.9
2023-07-15T03:34:54.694Z,23.9
2023-07-15T03:35:56.410Z,23.9
2023-07-15T03:36:58.093Z,23.9
2023-07-15T03:37:59.821Z,23.9
2023-07-15T03:39:02.417Z,23.9
2023-07-15T03:40:04.202Z,23.9
2023-07-15T03:41:05.942Z,23.9
2023-07-15T03:42:07.700Z,23.9
2023-07-15T03:43:09.434Z,23.9
2023-07-15T03:44:11.505Z,23.9
2023-07-15T03:45:13.220Z,23.9
2023-07-15T03:46:15.174Z,24
2023-07-15T03:47:19.207Z,24
2023-07-15T03:48:21.050Z,24
2023-07-15T03:49:22.899Z,24
2023-07-15T03:50:24.916Z,24
2023-07-15T03:51:26.630Z,23.9
2023-07-15T03:52:28.322Z,24
2023-07-15T03:53:30.121Z,23.9
2023-07-15T03:54:31.858Z,23.9
2023-07-15T03:55:36.419Z,24
2023-07-15T03:56:38.330Z,24
2023-07-15T03:57:40.033Z,24
2023-07-15T03:58:41.752Z,24.1
2023-07-15T03:59:43.420Z,24.1
2023-07-15T04:00:45.148Z,24.1
2023-07-15T04:01:46.927Z,24.1
2023-07-15T04:02:49.368Z,24
2023-07-15T04:03:52.450Z,24.1
2023-07-15T04:04:54.668Z,24.1
2023-07-15T04:05:56.640Z,24.1
2023-07-15T04:06:58.323Z,24.1
2023-07-15T04:08:00.073Z,24.2
2023-07-15T04:09:01.734Z,24.2
2023-07-15T04:10:03.487Z,24.2
2023-07-15T04:11:05.216Z,24.2
2023-07-15T04:12:06.970Z,24.2
2023-07-15T04:13:09.175Z,24.2
2023-07-15T04:14:10.949Z,24.2
2023-07-15T04:15:12.796Z,24.2
2023-07-15T04:16:14.987Z,24.2
2023-07-15T04:17:18.519Z,24.2
2023-07-15T04:18:20.243Z,24.2
2023-07-15T04:19:21.982Z,24.3
2023-07-15T04:20:23.826Z,24.3
2023-07-15T04:21:25.945Z,24.3
2023-07-15T04:22:27.721Z,24.4
2023-07-15T04:23:29.721Z,24.4
2023-07-15T04:24:31.808Z,24.4
2023-07-15T04:25:33.602Z,24.4
2023-07-15T04:26:35.318Z,24.4
2023-07-15T04:27:37.068Z,24.4
2023-07-15T04:28:40.488Z,24.4
2023-07-15T04:29:42.222Z,24.4
2023-07-15T04:30:43.967Z,24.4
2023-07-15T04:31:45.720Z,24.4
2023-07-15T04:32:47.641Z,24.5
2023-07-15T04:33:52.721Z,24.5
2023-07-15T04:34:54.488Z,24.5
2023-07-15T04:35:56.390Z,24.6
2023-07-15T04:36:58.186Z,24.6
2023-07-15T04:37:59.892Z,24.5
2023-07-15T04:39:01.660Z,24.5
2023-07-15T04:40:03.356Z,24.5
2023-07-15T04:41:05.249Z,24.6
2023-07-15T04:42:06.936Z,24.6
2023-07-15T04:43:08.653Z,24.6
2023-07-15T04:44:10.489Z,24.7
2023-07-15T04:45:12.230Z,24.7
2023-07-15T04:46:14.235Z,24.7
2023-07-15T04:47:18.152Z,24.7
2023-07-15T04:48:19.852Z,24.7
2023-07-15T04:49:21.602Z,24.8
2023-07-15T04:50:23.278Z,24.8
2023-07-15T04:51:25.159Z,24.8
2023-07-15T04:52:26.933Z,24.8
2023-07-15T04:53:28.677Z,24.8
2023-07-15T04:54:30.458Z,24.8
2023-07-15T04:55:32.124Z,24.8
2023-07-15T04:56:33.879Z,24.8
2023-07-15T04:57:35.546Z,24.8
2023-07-15T04:58:37.287Z,24.8
2023-07-15T04:59:39.255Z,24.7
2023-07-15T05:00:41.058Z,24.7
2023-07-15T05:01:42.809Z,24.7
2023-07-15T05:02:44.772Z,24.5
2023-07-15T05:03:46.697Z,24.4
2023-07-15T05:04:48.938Z,24.4
2023-07-15T05:05:50.725Z,24.3
2023-07-15T05:06:52.542Z,24.3
2023-07-15T05:07:58.627Z,24.4
2023-07-15T05:09:00.986Z,24.4
2023-07-15T05:10:02.766Z,24.4
2023-07-15T05:11:04.538Z,24.4
2023-07-15T05:12:06.326Z,24.4
2023-07-15T05:13:10.650Z,24.4
2023-07-15T05:14:12.384Z,24.5
2023-07-15T05:15:14.233Z,24.6
2023-07-15T05:16:16.107Z,24.6
2023-07-15T05:17:21.370Z,24.7
2023-07-15T05:18:23.156Z,24.7
2023-07-15T05:19:24.913Z,24.8
2023-07-15T05:20:26.593Z,24.8
2023-07-15T05:21:28.315Z,24.8
2023-07-15T05:22:30.202Z,24.8
2023-07-15T05:23:32.311Z,24.8
2023-07-15T05:24:34.492Z,24.7
2023-07-15T05:25:36.283Z,24.7
2023-07-15T05:26:38.027Z,24.7
2023-07-15T05:27:42.687Z,24.7
2023-07-15T05:28:44.438Z,24.7
2023-07-15T05:29:46.233Z,24.7
2023-07-15T05:30:47.946Z,24.7
2023-07-15T05:31:49.721Z,24.8
2023-07-15T05:32:51.787Z,24.8
2023-07-15T05:33:53.943Z,24.8
2023-07-15T05:34:55.808Z,24.9
2023-07-15T05:35:57.587Z,24.9
2023-07-15T05:36:59.363Z,24.9
2023-07-15T05:38:01.143Z,25
2023-07-15T05:39:06.143Z,25
2023-07-15T05:40:08.457Z,24.9
2023-07-15T05:41:10.173Z,24.8
2023-07-15T05:42:11.950Z,24.7
2023-07-15T05:43:13.690Z,24.7
2023-07-15T05:44:15.377Z,24.6
2023-07-15T05:45:17.091Z,24.6
2023-07-15T05:46:18.774Z,24.6
2023-07-15T05:47:21.222Z,24.6
2023-07-15T05:48:25.690Z,24.6
2023-07-15T05:49:27.391Z,24.6
2023-07-15T05:50:29.161Z,24.7
2023-07-15T05:51:30.864Z,24.7
2023-07-15T05:52:32.557Z,24.6
2023-07-15T05:53:34.354Z,24.7
2023-07-15T05:54:36.159Z,24.7
2023-07-15T05:55:37.882Z,24.7
2023-07-15T05:56:39.584Z,24.8
2023-07-15T05:57:41.330Z,24.8
2023-07-15T05:58:43.042Z,24.9
2023-07-15T05:59:44.810Z,24.8
2023-07-15T06:00:46.572Z,24.8
2023-07-15T06:01:48.489Z,24.7
2023-07-15T06:02:50.255Z,24.7
2023-07-15T06:03:52.557Z,24.6
2023-07-15T06:04:54.961Z,24.6
2023-07-15T06:05:56.823Z,24.7
2023-07-15T06:06:58.607Z,24.7
2023-07-15T06:08:00.388Z,24.8
2023-07-15T06:09:02.286Z,24.8
2023-07-15T06:10:04.105Z,24.9
2023-07-15T06:11:05.915Z,24.9
2023-07-15T06:12:07.611Z,24.9
2023-07-15T06:13:09.339Z,24.9
2023-07-15T06:14:11.040Z,24.8
2023-07-15T06:15:12.788Z,24.8
2023-07-15T06:16:14.582Z,24.8
2023-07-15T06:17:16.317Z,24.8
2023-07-15T06:18:18.903Z,24.7
2023-07-15T06:19:21.156Z,24.7
2023-07-15T06:20:22.949Z,24.7
2023-07-15T06:21:24.662Z,24.7
2023-07-15T06:22:26.493Z,24.8
2023-07-15T06:23:28.461Z,24.8
2023-07-15T06:24:30.396Z,24.8
2023-07-15T06:25:32.143Z,24.8
2023-07-15T06:26:34.036Z,24.8
2023-07-15T06:27:35.750Z,24.7
2023-07-15T06:28:37.470Z,24.7
2023-07-15T06:29:39.272Z,24.7
2023-07-15T06:30:40.960Z,24.7
2023-07-15T06:31:42.970Z,24.7
2023-07-15T06:32:45.265Z,24.7
2023-07-15T06:33:47.174Z,24.7
2023-07-15T06:34:48.898Z,24.7
2023-07-15T06:35:50.646Z,24.6
2023-07-15T06:36:53.980Z,24.7
2023-07-15T06:37:58.000Z,24.7
2023-07-15T06:38:59.863Z,24.7
2023-07-15T06:40:01.984Z,24.7
2023-07-15T06:41:03.872Z,24.7
2023-07-15T06:42:05.639Z,24.7
2023-07-15T06:43:07.395Z,24.6
2023-07-15T06:44:09.089Z,24.6
2023-07-15T06:45:10.863Z,24.7
2023-07-15T06:46:13.400Z,24.7
2023-07-15T06:47:18.322Z,24.7
2023-07-15T06:48:20.462Z,24.7
2023-07-15T06:49:22.212Z,24.7
2023-07-15T06:50:24.184Z,24.7
2023-07-15T06:51:25.871Z,24.7
2023-07-15T06:52:27.567Z,24.7
2023-07-15T06:53:29.300Z,24.7
2023-07-15T06:54:31.077Z,24.6
2023-07-15T06:55:32.865Z,24.6
2023-07-15T06:56:34.704Z,24.6
2023-07-15T06:57:36.405Z,24.7
2023-07-15T06:58:38.113Z,24.6
2023-07-15T06:59:40.325Z,24.6
2023-07-15T07:00:42.057Z,24.7
2023-07-15T07:01:44.609Z,24.7
2023-07-15T07:02:46.827Z,24.7
2023-07-15T07:03:48.830Z,24.7
2023-07-15T07:04:50.596Z,24.7
2023-07-15T07:05:52.310Z,24.7
2023-07-15T07:06:54.373Z,24.8
2023-07-15T07:07:56.124Z,24.8
2023-07-15T07:09:00.799Z,24.8
2023-07-15T07:10:02.495Z,24.8
2023-07-15T07:11:04.713Z,24.8
2023-07-15T07:12:06.592Z,24.8
2023-07-15T07:13:08.337Z,24.8
2023-07-15T07:14:10.038Z,24.8
2023-07-15T07:15:11.800Z,24.7
2023-07-15T07:16:13.537Z,24.7
2023-07-15T07:17:15.279Z,24.8
2023-07-15T07:18:17.073Z,24.9
2023-07-15T07:19:19.666Z,24.9
2023-07-15T07:20:21.436Z,25
2023-07-15T07:21:23.179Z,24.9
2023-07-15T07:22:25.058Z,24.9
2023-07-15T07:23:27.128Z,24.8
2023-07-15T07:24:28.814Z,24.8
2023-07-15T07:25:30.523Z,24.8
2023-07-15T07:26:32.291Z,24.8
2023-07-15T07:27:34.125Z,24.8
2023-07-15T07:28:35.946Z,24.8
2023-07-15T07:29:37.653Z,24.9
2023-07-15T07:30:39.429Z,24.9
2023-07-15T07:31:44.461Z,24.9
2023-07-15T07:32:46.169Z,24.9
2023-07-15T07:33:48.219Z,24.9
2023-07-15T07:34:50.093Z,24.9
2023-07-15T07:35:51.842Z,24.8
2023-07-15T07:36:53.611Z,24.8
2023-07-15T07:37:55.310Z,24.8
2023-07-15T07:38:57.379Z,24.8
2023-07-15T07:39:59.509Z,24.9
2023-07-15T07:41:01.509Z,24.9
2023-07-15T07:42:03.414Z,24.9
2023-07-15T07:43:05.205Z,24.9
2023-07-15T07:44:06.887Z,24.9
2023-07-15T07:45:08.608Z,24.9
2023-07-15T07:46:10.342Z,24.9
2023-07-15T07:47:12.702Z,24.9
2023-07-15T07:48:17.158Z,25
2023-07-15T07:49:18.989Z,24.9
2023-07-15T07:50:20.696Z,24.9
2023-07-15T07:51:22.564Z,25
2023-07-15T07:52:24.747Z,25
2023-07-15T07:53:26.476Z,25
2023-07-15T07:54:28.243Z,24.9
2023-07-15T07:55:29.974Z,24.9
2023-07-15T07:56:31.729Z,24.9
2023-07-15T07:57:33.513Z,24.9
2023-07-15T07:58:35.329Z,24.9
2023-07-15T07:59:37.014Z,25
2023-07-15T08:00:38.712Z,25.1
2023-07-15T08:01:40.447Z,25.2
2023-07-15T08:02:42.246Z,25.3
2023-07-15T08:03:44.679Z,25.2
2023-07-15T08:04:47.235Z,25.2
2023-07-15T08:05:49.323Z,25.2
2023-07-15T08:06:51.272Z,25.3
2023-07-15T08:07:53.003Z,25.2
2023-07-15T08:08:54.694Z,25.1
2023-07-15T08:09:56.424Z,25
2023-07-15T08:10:58.140Z,25
2023-07-15T08:11:59.854Z,25.1
2023-07-15T08:13:01.772Z,25.3
2023-07-15T08:14:03.733Z,25.3
2023-07-15T08:15:07.883Z,25.2
2023-07-15T08:16:13.543Z,25.2
2023-07-15T08:17:15.403Z,25.3
2023-07-15T08:18:17.121Z,25.3
2023-07-15T08:19:18.867Z,25.2
2023-07-15T08:20:20.581Z,25.2
2023-07-15T08:21:22.332Z,25.1
2023-07-15T08:22:24.086Z,25
2023-07-15T08:23:25.859Z,25
2023-07-15T08:24:27.661Z,25.1
2023-07-15T08:25:29.368Z,25.1
2023-07-15T08:26:31.079Z,25.1
2023-07-15T08:27:32.857Z,25
2023-07-15T08:28:34.603Z,25
2023-07-15T08:29:36.448Z,25
2023-07-15T08:30:38.415Z,25
2023-07-15T08:31:40.224Z,25
2023-07-15T08:32:43.075Z,25
2023-07-15T08:33:45.043Z,25
2023-07-15T08:34:46.818Z,25.1
2023-07-15T08:35:48.565Z,25.1
2023-07-15T08:36:50.282Z,25.2
2023-07-15T08:37:54.195Z,25.2
2023-07-15T08:38:56.211Z,25.2
2023-07-15T08:39:58.082Z,25.2
2023-07-15T08:40:59.884Z,25.2
2023-07-15T08:42:01.610Z,25.2
2023-07-15T08:43:03.378Z,25.3
2023-07-15T08:44:05.374Z,25.3
2023-07-15T08:45:07.211Z,25.3
2023-07-15T08:46:09.161Z,25.4
2023-07-15T08:47:11.496Z,25.4
2023-07-15T08:48:13.193Z,25.4
2023-07-15T08:49:15.817Z,25.4
2023-07-15T08:50:21.589Z,25.4
2023-07-15T08:51:23.634Z,25.5
2023-07-15T08:52:25.331Z,25.5
2023-07-15T08:53:27.052Z,25.4
2023-07-15T08:54:29.224Z,25.3
2023-07-15T08:55:30.934Z,25.4
2023-07-15T08:56:32.751Z,25.4
2023-07-15T08:57:34.647Z,25.3
2023-07-15T08:58:36.424Z,25.3
2023-07-15T08:59:38.197Z,25.4
2023-07-15T09:00:39.938Z,25.4
2023-07-15T09:01:44.140Z,25.5
2023-07-15T09:02:49.524Z,25.4
2023-07-15T09:03:51.667Z,25.3
2023-07-15T09:04:54.187Z,25.3
2023-07-15T09:05:59.356Z,25.2
2023-07-15T09:07:01.212Z,25.2
2023-07-15T09:08:05.654Z,25.3
2023-07-15T09:09:07.375Z,25.3
2023-07-15T09:10:09.386Z,25.3
2023-07-15T09:11:11.288Z,25.2
2023-07-15T09:12:15.023Z,25.2
2023-07-15T09:13:16.733Z,25.2
2023-07-15T09:14:18.502Z,25.1
2023-07-15T09:15:20.375Z,25.1
2023-07-15T09:16:22.202Z,25.3
2023-07-15T09:17:24.183Z,25.3
2023-07-15T09:18:26.044Z,25.4
2023-07-15T09:19:27.757Z,25.4
2023-07-15T09:20:29.426Z,25.4
2023-07-15T09:21:31.167Z,25.4
2023-07-15T09:22:35.572Z,25.4
2023-07-15T09:23:37.678Z,25.5
2023-07-15T09:24:39.443Z,25.5
2023-07-15T09:25:41.356Z,25.5
2023-07-15T09:26:45.880Z,25.5
2023-07-15T09:27:47.684Z,25.5
2023-07-15T09:28:49.380Z,25.6
2023-07-15T09:29:51.206Z,25.6
2023-07-15T09:30:53.182Z,25.7
2023-07-15T09:31:55.697Z,25.7
2023-07-15T09:33:01.031Z,25.6
2023-07-15T09:34:03.150Z,25.5
2023-07-15T09:35:04.938Z,25.3
2023-07-15T09:36:06.638Z,25.1
2023-07-15T09:37:08.462Z,25.1
2023-07-15T09:38:10.157Z,25
2023-07-15T09:39:11.914Z,25
2023-07-15T09:40:13.659Z,25
2023-07-15T09:41:15.717Z,25
2023-07-15T09:42:18.465Z,24.9
2023-07-15T09:43:20.179Z,24.8
2023-07-15T09:44:23.798Z,24.8
2023-07-15T09:45:25.716Z,24.8
2023-07-15T09:46:27.629Z,24.8
2023-07-15T09:47:29.947Z,24.8
2023-07-15T09:48:32.136Z,24.8
2023-07-15T09:49:33.822Z,24.7
2023-07-15T09:50:35.530Z,24.7
2023-07-15T09:51:37.342Z,24.7
2023-07-15T09:52:39.076Z,24.7
2023-07-15T09:53:40.793Z,24.8
2023-07-15T09:54:42.473Z,24.8
2023-07-15T09:55:47.003Z,24.8
2023-07-15T09:56:48.763Z,24.7
2023-07-15T09:57:50.541Z,24.8
2023-07-15T09:58:52.226Z,24.8
2023-07-15T09:59:54.026Z,24.8
2023-07-15T10:00:55.852Z,24.8
2023-07-15T10:02:00.617Z,24.9
2023-07-15T10:03:03.005Z,24.9
2023-07-15T10:04:08.367Z,24.9
2023-07-15T10:05:10.312Z,24.8
2023-07-15T10:06:11.991Z,24.9
2023-07-15T10:07:16.374Z,24.8
2023-07-15T10:08:18.096Z,24.8
2023-07-15T10:09:19.791Z,24.8
2023-07-15T10:10:21.516Z,25
2023-07-15T10:11:23.209Z,25.1
2023-07-15T10:12:24.967Z,25.2
2023-07-15T10:13:26.687Z,25.2
2023-07-15T10:14:28.370Z,25.1
2023-07-15T10:15:30.169Z,25.2
2023-07-15T10:16:32.711Z,25.2
2023-07-15T10:17:37.836Z,25.2
2023-07-15T10:18:40.249Z,25.3
2023-07-15T10:19:42.011Z,25.4
2023-07-15T10:20:43.863Z,25.3
2023-07-15T10:21:45.593Z,25.2
2023-07-15T10:22:47.369Z,25
2023-07-15T10:23:49.870Z,24.9
2023-07-15T10:24:51.585Z,24.9
2023-07-15T10:25:53.314Z,24.9
2023-07-15T10:26:55.145Z,24.9
2023-07-15T10:27:56.958Z,24.8
2023-07-15T10:28:58.696Z,24.8
2023-07-15T10:30:00.399Z,24.8
2023-07-15T10:31:06.543Z,24.7
2023-07-15T10:32:08.769Z,24.7
2023-07-15T10:33:11.575Z,24.7
2023-07-15T10:34:14.059Z,24.8
2023-07-15T10:35:15.777Z,24.8
2023-07-15T10:36:17.481Z,24.8
2023-07-15T10:37:19.250Z,24.9
2023-07-15T10:38:20.999Z,24.9
2023-07-15T10:39:22.803Z,24.8
2023-07-15T10:40:24.524Z,24.8
2023-07-15T10:41:26.260Z,24.8
2023-07-15T10:42:28.050Z,24.8
2023-07-15T10:43:31.071Z,24.9
2023-07-15T10:44:32.895Z,24.8
2023-07-15T10:45:34.660Z,24.9
2023-07-15T10:46:36.377Z,24.9
2023-07-15T10:47:38.264Z,25
2023-07-15T10:48:40.525Z,25
2023-07-15T10:49:42.503Z,25
2023-07-15T10:50:44.250Z,25
2023-07-15T10:51:46.038Z,25.1
2023-07-15T10:52:47.809Z,25
2023-07-15T10:53:49.561Z,25
2023-07-15T10:54:51.321Z,25
2023-07-15T10:55:53.095Z,25
2023-07-15T10:56:54.819Z,25
2023-07-15T10:57:56.540Z,25
2023-07-15T10:58:58.288Z,25.1
2023-07-15T11:00:00.077Z,25.1
2023-07-15T11:01:01.828Z,25
2023-07-15T11:02:04.142Z,25
2023-07-15T11:03:06.041Z,25.1
2023-07-15T11:04:08.055Z,25.1
2023-07-15T11:05:09.949Z,25.2
2023-07-15T11:06:12.571Z,25.1
2023-07-15T11:07:18.711Z,25.2
2023-07-15T11:08:20.642Z,25.2
2023-07-15T11:09:22.369Z,25.2
2023-07-15T11:10:24.280Z,25.1
2023-07-15T11:11:25.987Z,25.1
2023-07-15T11:12:27.692Z,25.1
2023-07-15T11:13:31.588Z,25
2023-07-15T11:14:33.326Z,25
2023-07-15T11:15:35.106Z,25
2023-07-15T11:16:36.872Z,25
2023-07-15T11:17:38.906Z,25
2023-07-15T11:18:40.963Z,24.9
2023-07-15T11:19:42.690Z,25
2023-07-15T11:20:44.471Z,25.1
2023-07-15T11:21:46.183Z,25.1
2023-07-15T11:22:47.950Z,25.1
2023-07-15T11:23:49.898Z,25.1
2023-07-15T11:24:52.122Z,25.1
2023-07-15T11:25:53.841Z,25.2
2023-07-15T11:26:58.115Z,25.2
2023-07-15T11:27:59.918Z,25.2
2023-07-15T11:29:01.661Z,25.1
2023-07-15T11:30:03.500Z,25.1
2023-07-15T11:31:05.264Z,25.1
2023-07-15T11:32:10.105Z,25
2023-07-15T11:33:11.826Z,25.1
2023-07-15T11:34:13.622Z,25.1
2023-07-15T11:35:15.389Z,25.1
2023-07-15T11:36:17.334Z,25.2
2023-07-15T11:37:19.371Z,25.1
2023-07-15T11:38:21.088Z,24.9
2023-07-15T11:39:22.783Z,24.7
2023-07-15T11:40:24.549Z,24.8
2023-07-15T11:41:26.263Z,24.8
2023-07-15T11:42:28.032Z,24.8
2023-07-15T11:43:29.801Z,24.9
2023-07-15T11:44:31.643Z,25
2023-07-15T11:45:33.391Z,25
2023-07-15T11:46:35.160Z,25.1
2023-07-15T11:47:37.410Z,25
2023-07-15T11:48:39.392Z,24.9
2023-07-15T11:49:41.181Z,24.8
2023-07-15T11:50:42.975Z,24.8
2023-07-15T11:51:44.793Z,24.7
2023-07-15T11:52:46.624Z,24.6
2023-07-15T11:53:48.333Z,24.6
2023-07-15T11:54:50.020Z,24.7
2023-07-15T11:55:51.757Z,24.8
2023-07-15T11:56:54.081Z,24.9
2023-07-15T11:58:01.569Z,25.1
2023-07-15T11:59:03.297Z,25.2
2023-07-15T12:00:05.278Z,25.1
2023-07-15T12:01:07.019Z,25
2023-07-15T12:02:08.747Z,24.9
2023-07-15T12:03:13.378Z,24.9
2023-07-15T12:04:15.617Z,24.9
2023-07-15T12:05:18.204Z,24.9
2023-07-15T12:06:19.931Z,24.9
2023-07-15T12:07:21.699Z,24.9
2023-07-15T12:08:23.517Z,25
2023-07-15T12:09:25.273Z,25
2023-07-15T12:10:26.993Z,25
2023-07-15T12:11:28.736Z,25
2023-07-15T12:12:33.171Z,25
2023-07-15T12:13:34.913Z,25
2023-07-15T12:14:36.729Z,25
2023-07-15T12:15:38.470Z,24.9
2023-07-15T12:16:40.257Z,24.9
2023-07-15T12:17:45.554Z,24.8
2023-07-15T12:18:50.539Z,24.8
2023-07-15T12:19:52.326Z,24.8
2023-07-15T12:20:54.108Z,24.9
2023-07-15T12:21:56.062Z,24.8
2023-07-15T12:22:57.892Z,24.8
2023-07-15T12:24:03.105Z,24.8
2023-07-15T12:25:04.897Z,24.8
2023-07-15T12:26:06.720Z,24.8
2023-07-15T12:27:20.557Z,24.9
2023-07-15T12:28:22.292Z,24.9
2023-07-15T12:29:26.090Z,24.8
2023-07-15T12:30:27.769Z,24.8
2023-07-15T12:31:30.223Z,24.8
2023-07-15T12:32:32.548Z,24.8
2023-07-15T12:33:34.450Z,24.8
2023-07-15T12:34:36.238Z,24.9
2023-07-15T12:35:37.967Z,24.9
2023-07-15T12:36:39.799Z,24.9
2023-07-15T12:37:41.588Z,24.9
2023-07-15T12:38:43.346Z,24.9
2023-07-15T12:39:45.530Z,24.8
2023-07-15T12:40:47.396Z,24.8
2023-07-15T12:41:53.247Z,24.7
2023-07-15T12:42:55.019Z,24.6
2023-07-15T12:43:56.744Z,24.6
2023-07-15T12:44:58.591Z,24.6
2023-07-15T12:46:00.358Z,24.5
2023-07-15T12:47:02.414Z,24.5
2023-07-15T12:48:05.129Z,24.6
2023-07-15T12:49:07.345Z,24.6
2023-07-15T12:50:09.079Z,24.7
2023-07-15T12:51:10.942Z,24.7
2023-07-15T12:52:12.779Z,24.7
2023-07-15T12:53:16.588Z,24.7
2023-07-15T12:54:21.459Z,24.7
2023-07-15T12:55:23.234Z,24.6
2023-07-15T12:56:25.048Z,24.5
2023-07-15T12:57:26.780Z,24.4
2023-07-15T12:58:28.505Z,24.5
2023-07-15T12:59:30.226Z,24.5
2023-07-15T13:00:31.916Z,24.5
2023-07-15T13:01:33.650Z,24.6
2023-07-15T13:02:36.215Z,24.7
2023-07-15T13:03:38.568Z,24.7
2023-07-15T13:04:41.033Z,24.6
2023-07-15T13:05:42.760Z,24.6
2023-07-15T13:06:44.496Z,24.6
2023-07-15T13:07:46.265Z,24.6
2023-07-15T13:08:48.057Z,24.6
2023-07-15T13:09:49.896Z,24.5
2023-07-15T13:10:53.405Z,24.5
2023-07-15T13:11:57.980Z,24.4
2023-07-15T13:12:59.700Z,24.4
2023-07-15T13:14:01.975Z,24.5
2023-07-15T13:15:03.663Z,24.5
2023-07-15T13:16:05.867Z,24.6
2023-07-15T13:17:10.635Z,24.6
2023-07-15T13:18:12.410Z,24.6
2023-07-15T13:19:14.367Z,24.6
2023-07-15T13:20:16.081Z,24.6
2023-07-15T13:21:18.022Z,24.5
2023-07-15T13:22:22.111Z,24.6
2023-07-15T13:23:24.066Z,24.6
2023-07-15T13:24:26.038Z,24.6
2023-07-15T13:25:27.883Z,24.6
2023-07-15T13:26:29.651Z,24.6
2023-07-15T13:27:31.432Z,24.6
2023-07-15T13:28:33.141Z,24.6
2023-07-15T13:29:34.932Z,24.6
2023-07-15T13:30:36.666Z,24.6
2023-07-15T13:31:38.549Z,24.7
2023-07-15T13:32:40.728Z,24.7
2023-07-15T13:33:42.702Z,24.7
2023-07-15T13:34:44.494Z,24.8
2023-07-15T13:35:46.295Z,24.7
2023-07-15T13:36:48.045Z,24.8
2023-07-15T13:37:49.775Z,24.7
2023-07-15T13:38:53.219Z,24.7
2023-07-15T13:40:02.454Z,24.7
2023-07-15T13:41:04.373Z,24.6
2023-07-15T13:42:06.151Z,24.6
2023-07-15T13:43:08.037Z,24.6
2023-07-15T13:44:09.892Z,24.7
2023-07-15T13:45:12.237Z,24.7
2023-07-15T13:46:14.053Z,24.7
2023-07-15T13:47:18.902Z,24.6
2023-07-15T13:48:21.061Z,24.4
2023-07-15T13:49:22.801Z,24.3
2023-07-15T13:50:24.691Z,24.3
2023-07-15T13:51:26.504Z,24.4
2023-07-15T13:52:28.250Z,24.5